Terminal Aerodrome Forecast
Issued by NWS Greer, SC

Home | Current Version | Previous Version | Text Only | Print | Product List | Glossary On
Versions: 1 2 3 4 5 6 7 8 9 10 11 12 13 14 15 16 17 18 19 20 21 22 23 24 25 26 27 28 29 30 31 32 33 34 35 36 37 38 39 40 41 42 43
000
FTUS42 KGSP 032335
TAFAVL
TAF
KAVL 032335Z 0400/0424 16003KT 6SM -SHRADZ BR OVC008
     FM040300 17004KT 6SM BR OVC010 WS020/23040KT
     FM041100 18008KT 3SM BR BKN027 WS020/24040KT
     FM041300 19008KT P6SM BKN027
     FM042200 20012KT P6SM BKN040=

USA.gov is the U.S. government's official web portal to all federal, state and local government web resources and services.